sensor_id;sensor_type;location;lat;lon;timestamp;P1;durP1;ratioP1;P2;durP2;ratioP2
68870;SDS011;55906;52.278;6.808;2022-09-03T00:00:48;5.30;;;3.40;;
68870;SDS011;55906;52.278;6.808;2022-09-03T00:03:20;4.50;;;3.03;;
68870;SDS011;55906;52.278;6.808;2022-09-03T00:05:55;5.45;;;3.03;;
68870;SDS011;55906;52.278;6.808;2022-09-03T00:08:33;4.03;;;3.00;;
68870;SDS011;55906;52.278;6.808;2022-09-03T00:11:05;6.18;;;3.03;;
68870;SDS011;55906;52.278;6.808;2022-09-03T00:13:38;4.38;;;3.13;;
68870;SDS011;55906;52.278;6.808;2022-09-03T00:16:10;5.35;;;3.05;;
68870;SDS011;55906;52.278;6.808;2022-09-03T00:18:42;4.53;;;3.53;;
68870;SDS011;55906;52.278;6.808;2022-09-03T00:21:14;4.90;;;2.90;;
68870;SDS011;55906;52.278;6.808;2022-09-03T00:23:47;4.05;;;3.20;;
68870;SDS011;55906;52.278;6.808;2022-09-03T00:26:17;4.32;;;3.20;;
68870;SDS011;55906;52.278;6.808;2022-09-03T00:28:50;4.60;;;3.60;;
68870;SDS011;55906;52.278;6.808;2022-09-03T00:31:24;3.80;;;2.90;;
68870;SDS011;55906;52.278;6.808;2022-09-03T00:33:55;3.73;;;2.97;;
68870;SDS011;55906;52.278;6.808;2022-09-03T00:36:30;5.80;;;3.25;;
68870;SDS011;55906;52.278;6.808;2022-09-03T00:39:01;4.22;;;2.88;;
68870;SDS011;55906;52.278;6.808;2022-09-03T00:41:29;3.72;;;2.67;;
68870;SDS011;55906;52.278;6.808;2022-09-03T00:44:05;5.22;;;3.00;;
68870;SDS011;55906;52.278;6.808;2022-09-03T00:46:44;4.07;;;3.10;;
68870;SDS011;55906;52.278;6.808;2022-09-03T00:52:14;3.80;;;2.83;;
68870;SDS011;55906;52.278;6.808;2022-09-03T00:54:49;3.63;;;2.50;;
68870;SDS011;55906;52.278;6.808;2022-09-03T00:57:29;4.05;;;2.60;;
68870;SDS011;55906;52.278;6.808;2022-09-03T01:00:05;4.97;;;2.80;;
68870;SDS011;55906;52.278;6.808;2022-09-03T01:02:40;5.18;;;2.70;;
68870;SDS011;55906;52.278;6.808;2022-09-03T01:05:26;3.53;;;2.58;;
68870;SDS011;55906;52.278;6.808;2022-09-03T01:08:10;4.80;;;2.47;;
68870;SDS011;55906;52.278;6.808;2022-09-03T01:10:57;3.80;;;2.80;;
68870;SDS011;55906;52.278;6.808;2022-09-03T01:13:37;4.03;;;3.03;;
68870;SDS011;55906;52.278;6.808;2022-09-03T01:16:10;3.55;;;2.78;;
68870;SDS011;55906;52.278;6.808;2022-09-03T01:18:47;4.47;;;2.35;;
68870;SDS011;55906;52.278;6.808;2022-09-03T01:21:29;4.22;;;2.50;;
68870;SDS011;55906;52.278;6.808;2022-09-03T01:27:28;7.00;;;3.00;;
68870;SDS011;55906;52.278;6.808;2022-09-03T01:30:04;4.72;;;2.90;;
68870;SDS011;55906;52.278;6.808;2022-09-03T01:32:35;4.72;;;2.85;;
68870;SDS011;55906;52.278;6.808;2022-09-03T01:35:10;3.72;;;2.70;;
68870;SDS011;55906;52.278;6.808;2022-09-03T01:37:44;4.53;;;2.72;;
68870;SDS011;55906;52.278;6.808;2022-09-03T01:40:22;3.30;;;2.20;;
68870;SDS011;55906;52.278;6.808;2022-09-03T01:43:02;4.07;;;3.05;;
68870;SDS011;55906;52.278;6.808;2022-09-03T01:45:44;4.30;;;2.65;;
68870;SDS011;55906;52.278;6.808;2022-09-03T01:48:21;4.78;;;2.78;;
68870;SDS011;55906;52.278;6.808;2022-09-03T01:51:02;4.18;;;2.65;;
68870;SDS011;55906;52.278;6.808;2022-09-03T01:53:49;3.70;;;2.70;;
68870;SDS011;55906;52.278;6.808;2022-09-03T01:56:30;3.70;;;2.53;;
68870;SDS011;55906;52.278;6.808;2022-09-03T01:59:12;4.03;;;2.70;;
68870;SDS011;55906;52.278;6.808;2022-09-03T02:01:48;4.00;;;2.80;;
68870;SDS011;55906;52.278;6.808;2022-09-03T02:04:22;5.25;;;2.45;;
68870;SDS011;55906;52.278;6.808;2022-09-03T02:06:50;5.17;;;2.73;;
68870;SDS011;55906;52.278;6.808;2022-09-03T02:09:18;3.80;;;2.60;;
68870;SDS011;55906;52.278;6.808;2022-09-03T02:11:48;3.75;;;2.47;;
68870;SDS011;55906;52.278;6.808;2022-09-03T02:14:21;4.30;;;2.80;;
68870;SDS011;55906;52.278;6.808;2022-09-03T02:16:49;3.50;;;2.58;;
68870;SDS011;55906;52.278;6.808;2022-09-03T02:19:16;5.27;;;2.93;;
68870;SDS011;55906;52.278;6.808;2022-09-03T02:21:44;4.50;;;2.58;;
68870;SDS011;55906;52.278;6.808;2022-09-03T02:24:15;3.97;;;2.92;;
68870;SDS011;55906;52.278;6.808;2022-09-03T02:26:42;5.53;;;2.90;;
68870;SDS011;55906;52.278;6.808;2022-09-03T02:29:09;6.60;;;2.90;;
68870;SDS011;55906;52.278;6.808;2022-09-03T02:31:38;3.70;;;2.53;;
68870;SDS011;55906;52.278;6.808;2022-09-03T02:34:06;3.90;;;2.60;;
68870;SDS011;55906;52.278;6.808;2022-09-03T02:36:33;3.72;;;2.70;;
68870;SDS011;55906;52.278;6.808;2022-09-03T02:39:01;4.28;;;2.63;;
68870;SDS011;55906;52.278;6.808;2022-09-03T02:41:29;4.20;;;2.88;;
68870;SDS011;55906;52.278;6.808;2022-09-03T02:43:57;4.23;;;3.43;;
68870;SDS011;55906;52.278;6.808;2022-09-03T02:46:28;5.05;;;3.10;;
68870;SDS011;55906;52.278;6.808;2022-09-03T02:49:00;5.43;;;2.60;;
68870;SDS011;55906;52.278;6.808;2022-09-03T02:51:31;4.30;;;3.22;;
68870;SDS011;55906;52.278;6.808;2022-09-03T02:53:59;3.65;;;2.50;;
68870;SDS011;55906;52.278;6.808;2022-09-03T02:56:25;4.07;;;2.57;;
68870;SDS011;55906;52.278;6.808;2022-09-03T02:58:52;3.97;;;2.58;;
68870;SDS011;55906;52.278;6.808;2022-09-03T03:01:19;3.60;;;2.60;;
68870;SDS011;55906;52.278;6.808;2022-09-03T03:03:45;3.60;;;2.33;;
68870;SDS011;55906;52.278;6.808;2022-09-03T03:06:12;3.83;;;2.78;;
68870;SDS011;55906;52.278;6.808;2022-09-03T03:08:40;5.30;;;2.70;;
68870;SDS011;55906;52.278;6.808;2022-09-03T03:11:08;4.78;;;3.00;;
68870;SDS011;55906;52.278;6.808;2022-09-03T03:13:35;9.15;;;2.88;;
68870;SDS011;55906;52.278;6.808;2022-09-03T03:16:02;3.85;;;2.80;;
68870;SDS011;55906;52.278;6.808;2022-09-03T03:18:31;3.92;;;2.70;;
68870;SDS011;55906;52.278;6.808;2022-09-03T03:21:02;4.13;;;2.63;;
68870;SDS011;55906;52.278;6.808;2022-09-03T03:23:30;5.10;;;2.90;;
68870;SDS011;55906;52.278;6.808;2022-09-03T03:26:00;3.92;;;2.70;;
68870;SDS011;55906;52.278;6.808;2022-09-03T03:28:27;3.50;;;2.40;;
68870;SDS011;55906;52.278;6.808;2022-09-03T03:30:58;4.28;;;2.67;;
68870;SDS011;55906;52.278;6.808;2022-09-03T03:33:25;8.97;;;4.47;;
68870;SDS011;55906;52.278;6.808;2022-09-03T03:35:51;4.05;;;2.70;;
68870;SDS011;55906;52.278;6.808;2022-09-03T03:38:18;4.13;;;3.00;;
68870;SDS011;55906;52.278;6.808;2022-09-03T03:40:45;3.80;;;3.00;;
68870;SDS011;55906;52.278;6.808;2022-09-03T03:43:13;4.28;;;2.60;;
68870;SDS011;55906;52.278;6.808;2022-09-03T03:45:40;4.23;;;2.90;;
68870;SDS011;55906;52.278;6.808;2022-09-03T03:48:06;3.75;;;2.70;;
68870;SDS011;55906;52.278;6.808;2022-09-03T03:50:33;4.50;;;3.17;;
68870;SDS011;55906;52.278;6.808;2022-09-03T03:52:59;4.45;;;2.90;;
68870;SDS011;55906;52.278;6.808;2022-09-03T03:55:26;4.75;;;3.17;;
68870;SDS011;55906;52.278;6.808;2022-09-03T03:57:53;3.57;;;2.50;;
68870;SDS011;55906;52.278;6.808;2022-09-03T04:00:21;3.90;;;2.70;;
68870;SDS011;55906;52.278;6.808;2022-09-03T04:02:47;7.03;;;2.70;;
68870;SDS011;55906;52.278;6.808;2022-09-03T04:05:14;4.50;;;2.80;;
68870;SDS011;55906;52.278;6.808;2022-09-03T04:07:45;5.78;;;3.22;;
68870;SDS011;55906;52.278;6.808;2022-09-03T04:10:15;4.13;;;2.70;;
68870;SDS011;55906;52.278;6.808;2022-09-03T04:12:42;4.13;;;3.10;;
68870;SDS011;55906;52.278;6.808;2022-09-03T04:15:11;4.25;;;3.10;;
68870;SDS011;55906;52.278;6.808;2022-09-03T04:17:39;4.88;;;2.88;;
68870;SDS011;55906;52.278;6.808;2022-09-03T04:20:06;4.10;;;2.60;;
68870;SDS011;55906;52.278;6.808;2022-09-03T04:22:32;3.93;;;2.70;;
68870;SDS011;55906;52.278;6.808;2022-09-03T04:24:59;5.43;;;3.17;;
68870;SDS011;55906;52.278;6.808;2022-09-03T04:27:25;4.95;;;2.60;;
68870;SDS011;55906;52.278;6.808;2022-09-03T04:29:52;4.05;;;3.13;;
68870;SDS011;55906;52.278;6.808;2022-09-03T04:32:19;4.10;;;2.60;;
68870;SDS011;55906;52.278;6.808;2022-09-03T04:35:07;3.70;;;2.50;;
68870;SDS011;55906;52.278;6.808;2022-09-03T04:37:34;4.50;;;2.67;;
68870;SDS011;55906;52.278;6.808;2022-09-03T04:40:00;3.72;;;2.40;;
68870;SDS011;55906;52.278;6.808;2022-09-03T04:42:27;3.75;;;2.60;;
68870;SDS011;55906;52.278;6.808;2022-09-03T04:44:54;3.40;;;2.40;;
68870;SDS011;55906;52.278;6.808;2022-09-03T04:47:20;3.50;;;2.73;;
68870;SDS011;55906;52.278;6.808;2022-09-03T04:49:47;4.38;;;2.60;;
68870;SDS011;55906;52.278;6.808;2022-09-03T04:52:15;3.55;;;2.45;;
68870;SDS011;55906;52.278;6.808;2022-09-03T04:54:42;3.55;;;2.55;;
68870;SDS011;55906;52.278;6.808;2022-09-03T04:57:08;5.15;;;2.90;;
68870;SDS011;55906;52.278;6.808;2022-09-03T04:59:35;4.67;;;2.80;;
68870;SDS011;55906;52.278;6.808;2022-09-03T05:02:01;4.28;;;2.88;;
68870;SDS011;55906;52.278;6.808;2022-09-03T05:04:28;3.63;;;2.50;;
68870;SDS011;55906;52.278;6.808;2022-09-03T05:06:55;3.58;;;2.72;;
68870;SDS011;55906;52.278;6.808;2022-09-03T05:09:23;3.60;;;2.60;;
68870;SDS011;55906;52.278;6.808;2022-09-03T05:11:49;4.30;;;2.40;;
68870;SDS011;55906;52.278;6.808;2022-09-03T05:14:16;3.78;;;2.42;;
68870;SDS011;55906;52.278;6.808;2022-09-03T05:16:42;4.15;;;2.50;;
68870;SDS011;55906;52.278;6.808;2022-09-03T05:19:09;4.07;;;3.00;;
68870;SDS011;55906;52.278;6.808;2022-09-03T05:21:36;3.90;;;2.95;;
68870;SDS011;55906;52.278;6.808;2022-09-03T05:24:03;3.60;;;2.47;;
68870;SDS011;55906;52.278;6.808;2022-09-03T05:26:34;3.83;;;2.55;;
68870;SDS011;55906;52.278;6.808;2022-09-03T05:29:02;4.28;;;2.83;;
68870;SDS011;55906;52.278;6.808;2022-09-03T05:31:31;3.88;;;2.65;;
68870;SDS011;55906;52.278;6.808;2022-09-03T05:34:00;3.65;;;2.35;;
68870;SDS011;55906;52.278;6.808;2022-09-03T05:36:28;3.83;;;2.90;;
68870;SDS011;55906;52.278;6.808;2022-09-03T05:38:56;3.70;;;2.55;;
68870;SDS011;55906;52.278;6.808;2022-09-03T05:41:24;3.80;;;2.70;;
68870;SDS011;55906;52.278;6.808;2022-09-03T05:43:54;3.83;;;2.72;;
68870;SDS011;55906;52.278;6.808;2022-09-03T05:46:23;3.55;;;2.55;;
68870;SDS011;55906;52.278;6.808;2022-09-03T05:48:54;4.10;;;3.03;;
68870;SDS011;55906;52.278;6.808;2022-09-03T05:51:20;5.78;;;2.55;;
68870;SDS011;55906;52.278;6.808;2022-09-03T05:53:48;3.70;;;2.67;;
68870;SDS011;55906;52.278;6.808;2022-09-03T05:56:15;3.80;;;3.00;;
68870;SDS011;55906;52.278;6.808;2022-09-03T05:58:44;4.32;;;2.75;;
68870;SDS011;55906;52.278;6.808;2022-09-03T06:01:13;6.40;;;3.00;;
68870;SDS011;55906;52.278;6.808;2022-09-03T06:03:54;4.03;;;2.80;;
68870;SDS011;55906;52.278;6.808;2022-09-03T06:06:23;3.70;;;2.85;;
68870;SDS011;55906;52.278;6.808;2022-09-03T06:08:51;5.35;;;2.90;;
68870;SDS011;55906;52.278;6.808;2022-09-03T06:11:20;4.43;;;2.85;;
68870;SDS011;55906;52.278;6.808;2022-09-03T06:13:48;5.17;;;2.70;;
68870;SDS011;55906;52.278;6.808;2022-09-03T06:16:16;3.70;;;2.65;;
68870;SDS011;55906;52.278;6.808;2022-09-03T06:18:42;5.03;;;3.05;;
68870;SDS011;55906;52.278;6.808;2022-09-03T06:21:09;7.20;;;2.97;;
68870;SDS011;55906;52.278;6.808;2022-09-03T06:23:36;3.78;;;2.83;;
68870;SDS011;55906;52.278;6.808;2022-09-03T06:26:03;4.03;;;2.70;;
68870;SDS011;55906;52.278;6.808;2022-09-03T06:28:31;4.15;;;2.60;;
68870;SDS011;55906;52.278;6.808;2022-09-03T06:31:00;3.83;;;2.75;;
68870;SDS011;55906;52.278;6.808;2022-09-03T06:33:28;4.43;;;2.80;;
68870;SDS011;55906;52.278;6.808;2022-09-03T06:35:56;5.80;;;2.88;;
68870;SDS011;55906;52.278;6.808;2022-09-03T06:38:23;4.10;;;2.77;;
68870;SDS011;55906;52.278;6.808;2022-09-03T06:40:51;7.35;;;3.47;;
68870;SDS011;55906;52.278;6.808;2022-09-03T06:43:19;5.03;;;2.72;;
68870;SDS011;55906;52.278;6.808;2022-09-03T06:45:56;4.03;;;2.72;;
68870;SDS011;55906;52.278;6.808;2022-09-03T06:48:33;5.60;;;2.95;;
68870;SDS011;55906;52.278;6.808;2022-09-03T06:51:01;11.50;;;2.80;;
68870;SDS011;55906;52.278;6.808;2022-09-03T06:53:29;4.28;;;3.20;;
68870;SDS011;55906;52.278;6.808;2022-09-03T06:55:57;5.65;;;2.83;;
68870;SDS011;55906;52.278;6.808;2022-09-03T06:58:27;4.63;;;2.97;;
68870;SDS011;55906;52.278;6.808;2022-09-03T07:00:59;4.70;;;2.70;;
68870;SDS011;55906;52.278;6.808;2022-09-03T07:03:27;4.67;;;2.77;;
68870;SDS011;55906;52.278;6.808;2022-09-03T07:05:55;9.48;;;2.80;;
68870;SDS011;55906;52.278;6.808;2022-09-03T07:08:25;4.95;;;2.85;;
68870;SDS011;55906;52.278;6.808;2022-09-03T07:10:52;4.97;;;2.80;;
68870;SDS011;55906;52.278;6.808;2022-09-03T07:13:19;5.13;;;2.75;;
68870;SDS011;55906;52.278;6.808;2022-09-03T07:15:56;6.33;;;2.83;;
68870;SDS011;55906;52.278;6.808;2022-09-03T07:18:24;4.43;;;2.70;;
68870;SDS011;55906;52.278;6.808;2022-09-03T07:20:50;7.13;;;3.45;;
68870;SDS011;55906;52.278;6.808;2022-09-03T07:23:18;5.47;;;2.45;;
68870;SDS011;55906;52.278;6.808;2022-09-03T07:25:51;4.22;;;2.88;;
68870;SDS011;55906;52.278;6.808;2022-09-03T07:28:18;5.00;;;2.70;;
68870;SDS011;55906;52.278;6.808;2022-09-03T07:30:45;4.30;;;2.30;;
68870;SDS011;55906;52.278;6.808;2022-09-03T07:33:15;3.63;;;2.55;;
68870;SDS011;55906;52.278;6.808;2022-09-03T07:35:45;5.15;;;2.50;;
68870;SDS011;55906;52.278;6.808;2022-09-03T07:38:15;5.70;;;2.60;;
68870;SDS011;55906;52.278;6.808;2022-09-03T07:40:44;4.17;;;2.40;;
68870;SDS011;55906;52.278;6.808;2022-09-03T07:43:12;6.15;;;2.58;;
68870;SDS011;55906;52.278;6.808;2022-09-03T07:45:39;5.50;;;2.60;;
68870;SDS011;55906;52.278;6.808;2022-09-03T07:48:05;3.95;;;2.25;;
68870;SDS011;55906;52.278;6.808;2022-09-03T07:50:32;6.40;;;2.60;;
68870;SDS011;55906;52.278;6.808;2022-09-03T07:53:03;4.10;;;2.60;;
68870;SDS011;55906;52.278;6.808;2022-09-03T07:55:29;8.07;;;2.72;;
68870;SDS011;55906;52.278;6.808;2022-09-03T07:57:57;5.90;;;2.40;;
68870;SDS011;55906;52.278;6.808;2022-09-03T08:00:24;7.75;;;2.78;;
68870;SDS011;55906;52.278;6.808;2022-09-03T08:02:51;8.27;;;2.78;;
68870;SDS011;55906;52.278;6.808;2022-09-03T08:05:18;5.70;;;2.37;;
68870;SDS011;55906;52.278;6.808;2022-09-03T08:07:45;6.40;;;2.45;;
68870;SDS011;55906;52.278;6.808;2022-09-03T08:10:12;11.88;;;2.40;;
68870;SDS011;55906;52.278;6.808;2022-09-03T08:12:40;8.10;;;2.67;;
68870;SDS011;55906;52.278;6.808;2022-09-03T08:15:09;9.50;;;2.72;;
68870;SDS011;55906;52.278;6.808;2022-09-03T08:17:35;3.95;;;2.60;;
68870;SDS011;55906;52.278;6.808;2022-09-03T08:20:03;10.23;;;2.53;;
68870;SDS011;55906;52.278;6.808;2022-09-03T08:22:29;5.70;;;2.35;;
68870;SDS011;55906;52.278;6.808;2022-09-03T08:24:58;4.72;;;2.28;;
68870;SDS011;55906;52.278;6.808;2022-09-03T08:27:25;3.88;;;2.30;;
68870;SDS011;55906;52.278;6.808;2022-09-03T08:29:51;5.65;;;2.20;;
68870;SDS011;55906;52.278;6.808;2022-09-03T08:32:19;29.75;;;4.07;;
68870;SDS011;55906;52.278;6.808;2022-09-03T08:34:46;11.95;;;2.50;;
68870;SDS011;55906;52.278;6.808;2022-09-03T08:37:14;12.73;;;2.13;;
68870;SDS011;55906;52.278;6.808;2022-09-03T08:39:41;9.25;;;2.00;;
68870;SDS011;55906;52.278;6.808;2022-09-03T08:42:14;6.82;;;1.77;;
68870;SDS011;55906;52.278;6.808;2022-09-03T08:44:51;4.83;;;2.07;;
68870;SDS011;55906;52.278;6.808;2022-09-03T08:47:23;5.18;;;1.90;;
68870;SDS011;55906;52.278;6.808;2022-09-03T08:49:55;5.63;;;1.65;;
68870;SDS011;55906;52.278;6.808;2022-09-03T08:52:27;3.65;;;1.33;;
68870;SDS011;55906;52.278;6.808;2022-09-03T08:54:59;5.05;;;1.70;;
68870;SDS011;55906;52.278;6.808;2022-09-03T08:57:35;4.80;;;1.67;;
68870;SDS011;55906;52.278;6.808;2022-09-03T09:00:08;5.63;;;1.60;;
68870;SDS011;55906;52.278;6.808;2022-09-03T09:02:38;2.92;;;1.10;;
68870;SDS011;55906;52.278;6.808;2022-09-03T09:05:18;3.67;;;1.30;;
68870;SDS011;55906;52.278;6.808;2022-09-03T09:07:52;4.78;;;1.35;;
68870;SDS011;55906;52.278;6.808;2022-09-03T09:10:30;5.13;;;1.30;;
68870;SDS011;55906;52.278;6.808;2022-09-03T09:13:04;5.05;;;1.33;;
68870;SDS011;55906;52.278;6.808;2022-09-03T09:15:42;4.63;;;1.20;;
68870;SDS011;55906;52.278;6.808;2022-09-03T09:18:17;2.95;;;1.15;;
68870;SDS011;55906;52.278;6.808;2022-09-03T09:20:49;3.00;;;1.30;;
68870;SDS011;55906;52.278;6.808;2022-09-03T09:23:23;5.07;;;1.00;;
68870;SDS011;55906;52.278;6.808;2022-09-03T09:25:53;4.63;;;1.05;;
68870;SDS011;55906;52.278;6.808;2022-09-03T09:28:23;6.03;;;1.10;;
68870;SDS011;55906;52.278;6.808;2022-09-03T09:30:53;3.10;;;1.10;;
68870;SDS011;55906;52.278;6.808;2022-09-03T09:33:23;7.53;;;1.40;;
68870;SDS011;55906;52.278;6.808;2022-09-03T09:35:50;6.30;;;1.27;;
68870;SDS011;55906;52.278;6.808;2022-09-03T09:38:26;4.80;;;1.10;;
68870;SDS011;55906;52.278;6.808;2022-09-03T09:40:53;5.03;;;1.00;;
68870;SDS011;55906;52.278;6.808;2022-09-03T09:43:22;3.85;;;1.10;;
68870;SDS011;55906;52.278;6.808;2022-09-03T09:45:49;3.17;;;0.90;;
68870;SDS011;55906;52.278;6.808;2022-09-03T09:48:20;3.57;;;0.90;;
68870;SDS011;55906;52.278;6.808;2022-09-03T09:51:02;2.70;;;0.93;;
68870;SDS011;55906;52.278;6.808;2022-09-03T09:53:30;4.55;;;0.80;;
68870;SDS011;55906;52.278;6.808;2022-09-03T09:55:57;3.90;;;0.98;;
68870;SDS011;55906;52.278;6.808;2022-09-03T09:58:25;5.38;;;1.00;;
68870;SDS011;55906;52.278;6.808;2022-09-03T10:00:59;3.90;;;0.90;;
68870;SDS011;55906;52.278;6.808;2022-09-03T10:03:30;2.92;;;1.00;;
68870;SDS011;55906;52.278;6.808;2022-09-03T10:06:00;4.40;;;0.90;;
68870;SDS011;55906;52.278;6.808;2022-09-03T10:08:51;4.28;;;0.98;;
68870;SDS011;55906;52.278;6.808;2022-09-03T10:11:19;3.00;;;0.90;;
68870;SDS011;55906;52.278;6.808;2022-09-03T10:13:49;3.70;;;0.97;;
68870;SDS011;55906;52.278;6.808;2022-09-03T10:16:21;3.67;;;0.95;;
68870;SDS011;55906;52.278;6.808;2022-09-03T10:18:54;11.25;;;1.40;;
68870;SDS011;55906;52.278;6.808;2022-09-03T10:21:29;4.68;;;1.00;;
68870;SDS011;55906;52.278;6.808;2022-09-03T10:24:03;5.15;;;1.10;;
68870;SDS011;55906;52.278;6.808;2022-09-03T10:26:41;3.30;;;0.90;;
68870;SDS011;55906;52.278;6.808;2022-09-03T10:29:11;3.85;;;1.10;;
68870;SDS011;55906;52.278;6.808;2022-09-03T10:31:50;4.57;;;0.85;;
68870;SDS011;55906;52.278;6.808;2022-09-03T10:34:37;3.20;;;0.90;;
68870;SDS011;55906;52.278;6.808;2022-09-03T10:37:13;6.38;;;1.23;;
68870;SDS011;55906;52.278;6.808;2022-09-03T10:39:51;3.33;;;1.00;;
68870;SDS011;55906;52.278;6.808;2022-09-03T10:42:31;5.35;;;0.93;;
68870;SDS011;55906;52.278;6.808;2022-09-03T10:45:06;5.15;;;1.10;;
68870;SDS011;55906;52.278;6.808;2022-09-03T10:47:52;2.97;;;0.93;;
68870;SDS011;55906;52.278;6.808;2022-09-03T10:50:36;4.13;;;0.93;;
68870;SDS011;55906;52.278;6.808;2022-09-03T10:53:13;3.67;;;0.90;;
68870;SDS011;55906;52.278;6.808;2022-09-03T10:56:01;3.33;;;1.02;;
68870;SDS011;55906;52.278;6.808;2022-09-03T10:58:39;4.35;;;0.90;;
68870;SDS011;55906;52.278;6.808;2022-09-03T11:01:21;3.95;;;0.90;;
68870;SDS011;55906;52.278;6.808;2022-09-03T11:03:55;4.00;;;0.85;;
68870;SDS011;55906;52.278;6.808;2022-09-03T11:06:41;3.97;;;1.00;;
68870;SDS011;55906;52.278;6.808;2022-09-03T11:09:15;6.13;;;1.02;;
68870;SDS011;55906;52.278;6.808;2022-09-03T11:11:46;4.65;;;0.90;;
68870;SDS011;55906;52.278;6.808;2022-09-03T11:14:17;6.55;;;1.10;;
68870;SDS011;55906;52.278;6.808;2022-09-03T11:16:57;2.50;;;0.80;;
68870;SDS011;55906;52.278;6.808;2022-09-03T11:19:31;4.53;;;0.80;;
68870;SDS011;55906;52.278;6.808;2022-09-03T11:22:02;8.48;;;1.40;;
68870;SDS011;55906;52.278;6.808;2022-09-03T11:24:31;4.35;;;1.00;;
68870;SDS011;55906;52.278;6.808;2022-09-03T11:27:01;3.88;;;0.75;;
68870;SDS011;55906;52.278;6.808;2022-09-03T11:29:41;4.10;;;0.73;;
68870;SDS011;55906;52.278;6.808;2022-09-03T11:32:14;7.07;;;0.90;;
68870;SDS011;55906;52.278;6.808;2022-09-03T11:34:44;3.65;;;0.90;;
68870;SDS011;55906;52.278;6.808;2022-09-03T11:37:18;4.63;;;0.90;;
68870;SDS011;55906;52.278;6.808;2022-09-03T11:39:53;3.30;;;0.90;;
68870;SDS011;55906;52.278;6.808;2022-09-03T11:42:25;2.97;;;0.70;;
68870;SDS011;55906;52.278;6.808;2022-09-03T11:44:58;7.57;;;1.03;;
68870;SDS011;55906;52.278;6.808;2022-09-03T11:47:38;3.10;;;0.75;;
68870;SDS011;55906;52.278;6.808;2022-09-03T11:50:07;4.00;;;0.88;;
68870;SDS011;55906;52.278;6.808;2022-09-03T11:52:46;4.50;;;0.98;;
68870;SDS011;55906;52.278;6.808;2022-09-03T11:55:25;3.63;;;0.70;;
68870;SDS011;55906;52.278;6.808;2022-09-03T11:57:55;2.43;;;0.70;;
68870;SDS011;55906;52.278;6.808;2022-09-03T12:00:22;5.47;;;0.90;;
68870;SDS011;55906;52.278;6.808;2022-09-03T12:02:49;7.50;;;1.15;;
68870;SDS011;55906;52.278;6.808;2022-09-03T12:05:22;3.40;;;0.82;;
68870;SDS011;55906;52.278;6.808;2022-09-03T12:08:04;4.63;;;0.70;;
68870;SDS011;55906;52.278;6.808;2022-09-03T12:10:48;2.37;;;0.70;;
68870;SDS011;55906;52.278;6.808;2022-09-03T12:13:29;3.72;;;0.70;;
68870;SDS011;55906;52.278;6.808;2022-09-03T12:16:21;2.80;;;0.70;;
68870;SDS011;55906;52.278;6.808;2022-09-03T12:19:06;2.42;;;0.60;;
68870;SDS011;55906;52.278;6.808;2022-09-03T12:21:40;3.00;;;0.70;;
68870;SDS011;55906;52.278;6.808;2022-09-03T12:24:10;3.87;;;0.80;;
68870;SDS011;55906;52.278;6.808;2022-09-03T12:26:38;2.97;;;0.75;;
68870;SDS011;55906;52.278;6.808;2022-09-03T12:29:17;11.38;;;1.20;;
68870;SDS011;55906;52.278;6.808;2022-09-03T12:31:47;4.50;;;1.00;;
68870;SDS011;55906;52.278;6.808;2022-09-03T12:34:16;5.00;;;0.95;;
68870;SDS011;55906;52.278;6.808;2022-09-03T12:36:45;4.13;;;0.83;;
68870;SDS011;55906;52.278;6.808;2022-09-03T12:39:15;4.18;;;0.90;;
68870;SDS011;55906;52.278;6.808;2022-09-03T12:44:30;2.30;;;0.60;;
68870;SDS011;55906;52.278;6.808;2022-09-03T12:47:09;2.58;;;0.80;;
68870;SDS011;55906;52.278;6.808;2022-09-03T12:49:37;2.67;;;0.70;;
68870;SDS011;55906;52.278;6.808;2022-09-03T12:52:06;2.65;;;0.60;;
68870;SDS011;55906;52.278;6.808;2022-09-03T12:54:42;5.30;;;0.80;;
68870;SDS011;55906;52.278;6.808;2022-09-03T12:57:18;3.53;;;0.70;;
68870;SDS011;55906;52.278;6.808;2022-09-03T12:59:47;4.45;;;0.70;;
68870;SDS011;55906;52.278;6.808;2022-09-03T13:02:19;2.77;;;0.60;;
68870;SDS011;55906;52.278;6.808;2022-09-03T13:04:53;3.30;;;0.70;;
68870;SDS011;55906;52.278;6.808;2022-09-03T13:07:22;3.08;;;0.70;;
68870;SDS011;55906;52.278;6.808;2022-09-03T13:10:03;3.33;;;0.90;;
68870;SDS011;55906;52.278;6.808;2022-09-03T13:12:33;6.10;;;0.90;;
68870;SDS011;55906;52.278;6.808;2022-09-03T13:15:09;2.37;;;0.70;;
68870;SDS011;55906;52.278;6.808;2022-09-03T13:17:51;2.78;;;0.70;;
68870;SDS011;55906;52.278;6.808;2022-09-03T13:20:36;4.97;;;0.80;;
68870;SDS011;55906;52.278;6.808;2022-09-03T13:23:15;3.53;;;0.90;;
68870;SDS011;55906;52.278;6.808;2022-09-03T13:25:59;2.67;;;0.80;;
68870;SDS011;55906;52.278;6.808;2022-09-03T13:28:37;3.20;;;0.73;;
68870;SDS011;55906;52.278;6.808;2022-09-03T13:31:21;3.53;;;0.73;;
68870;SDS011;55906;52.278;6.808;2022-09-03T13:33:55;4.85;;;0.75;;
68870;SDS011;55906;52.278;6.808;2022-09-03T13:36:27;3.67;;;0.80;;
68870;SDS011;55906;52.278;6.808;2022-09-03T13:39:01;4.28;;;0.80;;
68870;SDS011;55906;52.278;6.808;2022-09-03T13:41:33;5.03;;;0.83;;
68870;SDS011;55906;52.278;6.808;2022-09-03T13:44:05;1.83;;;0.60;;
68870;SDS011;55906;52.278;6.808;2022-09-03T13:46:41;3.47;;;0.88;;
68870;SDS011;55906;52.278;6.808;2022-09-03T13:49:16;2.88;;;0.70;;
68870;SDS011;55906;52.278;6.808;2022-09-03T13:52:15;4.30;;;0.75;;
68870;SDS011;55906;52.278;6.808;2022-09-03T13:54:48;3.93;;;1.00;;
68870;SDS011;55906;52.278;6.808;2022-09-03T13:57:22;3.78;;;0.90;;
68870;SDS011;55906;52.278;6.808;2022-09-03T13:59:57;2.60;;;0.60;;
68870;SDS011;55906;52.278;6.808;2022-09-03T14:02:27;3.80;;;0.68;;
68870;SDS011;55906;52.278;6.808;2022-09-03T14:05:03;2.58;;;0.73;;
68870;SDS011;55906;52.278;6.808;2022-09-03T14:07:41;2.87;;;0.87;;
68870;SDS011;55906;52.278;6.808;2022-09-03T14:10:21;4.55;;;1.00;;
68870;SDS011;55906;52.278;6.808;2022-09-03T14:12:59;4.03;;;0.93;;
68870;SDS011;55906;52.278;6.808;2022-09-03T14:15:35;3.97;;;0.80;;
68870;SDS011;55906;52.278;6.808;2022-09-03T14:18:11;3.95;;;0.65;;
68870;SDS011;55906;52.278;6.808;2022-09-03T14:20:43;3.30;;;0.60;;
68870;SDS011;55906;52.278;6.808;2022-09-03T14:23:21;3.20;;;1.00;;
68870;SDS011;55906;52.278;6.808;2022-09-03T14:25:53;5.05;;;1.00;;
68870;SDS011;55906;52.278;6.808;2022-09-03T14:28:27;3.80;;;0.90;;
68870;SDS011;55906;52.278;6.808;2022-09-03T14:30:58;2.90;;;0.80;;
68870;SDS011;55906;52.278;6.808;2022-09-03T14:33:36;3.33;;;0.90;;
68870;SDS011;55906;52.278;6.808;2022-09-03T14:36:13;4.03;;;0.82;;
68870;SDS011;55906;52.278;6.808;2022-09-03T14:38:57;2.65;;;0.88;;
68870;SDS011;55906;52.278;6.808;2022-09-03T14:41:45;3.30;;;1.00;;
68870;SDS011;55906;52.278;6.808;2022-09-03T14:44:25;4.90;;;0.90;;
68870;SDS011;55906;52.278;6.808;2022-09-03T14:47:08;3.57;;;0.80;;
68870;SDS011;55906;52.278;6.808;2022-09-03T14:49:45;4.35;;;0.90;;
68870;SDS011;55906;52.278;6.808;2022-09-03T14:52:34;2.70;;;0.80;;
68870;SDS011;55906;52.278;6.808;2022-09-03T14:55:20;3.30;;;1.20;;
68870;SDS011;55906;52.278;6.808;2022-09-03T14:58:06;3.60;;;1.30;;
68870;SDS011;55906;52.278;6.808;2022-09-03T15:00:48;4.63;;;1.20;;
68870;SDS011;55906;52.278;6.808;2022-09-03T15:06:23;4.10;;;1.30;;
68870;SDS011;55906;52.278;6.808;2022-09-03T15:11:49;3.50;;;1.30;;
68870;SDS011;55906;52.278;6.808;2022-09-03T15:14:23;3.83;;;1.27;;
68870;SDS011;55906;52.278;6.808;2022-09-03T15:17:16;4.50;;;1.42;;
68870;SDS011;55906;52.278;6.808;2022-09-03T15:19:55;3.40;;;1.30;;
68870;SDS011;55906;52.278;6.808;2022-09-03T15:22:35;3.20;;;1.30;;
68870;SDS011;55906;52.278;6.808;2022-09-03T15:25:18;3.53;;;1.30;;
68870;SDS011;55906;52.278;6.808;2022-09-03T15:27:58;4.90;;;1.43;;
68870;SDS011;55906;52.278;6.808;2022-09-03T15:30:33;4.18;;;1.20;;
68870;SDS011;55906;52.278;6.808;2022-09-03T15:33:09;3.95;;;1.40;;